Drew, Mississippi
Current Conditions -  °F | °C
As of 5:15 AM on Wednesday 26 Nov 2014 (Local Time) from KRNV Reporting Station
Clear Clear  
Wind Chill: 31°   Ceiling: Unl
Heat Index: 36°   Visibility: 10mi
Dew Point: 32°   Wind: 7mph
Humidity: 84%   Direction: 150°SSE
Pressure: 30.13"   Gusts: NA
Location:  33.81°N, 90.53°W
Report Text: KRNV 261115Z AUTO 15006KT 10SM CLR 02/00 A3013 RMK AO2 T00240000
Loading
Personal Weather Stations






























Interactive Weather Map New forecast layout! Learn more

10-Day Weather Forecast

Advertisements
Track Severe Weather on mobile